Montverde, Florida
Current Conditions -  °F | °C
As of 7:53 PM on Friday 19 Dec 2014 (Local Time) from KLEE Reporting Station
Clear Clear  
Wind Chill: 57°   Ceiling: Unl
Heat Index: 57°   Visibility: 10mi
Dew Point: 45°   Wind: 0mph
Humidity: 64%   Direction: NA
Pressure: 30.09"   Gusts: NA
Location:  28.6°N, 81.67°W
Report Text: KLEE 200053Z AUTO 00000KT 10SM CLR 14/07 A3009 RMK AO2 SLP190 T01390072
Loading
Personal Weather Stations






























Interactive Weather Map New forecast layout! Learn more

10-Day Weather Forecast

Advertisements
Track Severe Weather on mobile